Latest Conditions
At L.F.Wade Int. Airport
Recorded at 4:55 am
Partly Cloudy
Temp.: 
18°C/65°F
Humidity: 
81%
Wind: 
NW 5KT
or 6mph
UV Index: 
0
Island Observations
 
Observations
Saturday, January 19, 2019

Observations are in local time and taken at least once an hour, or upon the start and end of specified events such as showers and thunderstorms.

Time Sky / Weather Wind Speed/Gusts Temp. R.H. Pressure
     knots (mph)  °C (°F)  %  mb / "Hg
 04:55 Partly Cloudy  NW 5/0 (6/0) 18(65) 81 1019 / 30.10
 03:55 Partly Cloudy Showers W 9/0 (10/0) 18(65) 80 1019 / 30.10
 02:55 Few Clouds  W 10/0 (12/0) 18(65) 78 1020 / 30.11
 01:55 Partly Cloudy  WSW 8/0 (9/0) 18(65) 81 1020 / 30.11
 00:55 Few Clouds  WSW 7/0 (8/0) 17(63) 84 1019 / 30.10
 23:55 Mostly Cloudy  SW 9/0 (10/0) 17(63) 82 1020 / 30.11
 22:55 Few Clouds  SW 12/0 (14/0) 18(64) 78 1019 / 30.10
 21:55 Partly Cloudy  W 9/0 (10/0) 18(65) 74 1019 / 30.09
 20:55 Partly Cloudy  W 12/0 (14/0) 18(65) 74 1019 / 30.09
 19:55 Mostly Cloudy  SW 5/0 (6/0) 18(65) 70 1019 / 30.10
 18:55 Mostly Cloudy  WSW 8/0 (9/0) 18(65) 64 1019 / 30.10
 17:55 Mostly Cloudy  WSW 10/0 (12/0) 19(66) 61 1019 / 30.10
 16:55 Mostly Cloudy  SSW 13/0 (15/0) 19(66) 62 1019 / 30.08
 15:55 Mostly Cloudy  SSW 12/0 (14/0) 19(67) 59 1019 / 30.08
 14:55 Partly Cloudy  SSW 14/0 (16/0) 20(68) 57 1018 / 30.07
 13:55 Mostly Cloudy  SSW 13/0 (15/0) 20(68) 54 1019 / 30.10
 12:55 Mostly Cloudy  S 10/0 (12/0) 20(67) 53 1020 / 30.12
 11:55 Mostly Cloudy  SSW 10/0 (12/0) 20(67) 53 1021 / 30.15
 10:55 Mostly Cloudy  S 9/0 (10/0) 20(68) 54 1021 / 30.16
 09:55 Mostly Cloudy  S 8/0 (9/0) 19(66) 53 1022 / 30.17
 08:55 Mostly Cloudy  S 10/0 (12/0) 19(66) 56 1021 / 30.16
 07:55 Mostly Cloudy  S 10/0 (12/0) 18(64) 60 1022 / 30.17
 06:55 Mostly Cloudy  S 9/0 (10/0) 17(63) 62 1022 / 30.17
 05:55 Mostly Cloudy  S 8/0 (9/0) 16(61) 70 1022 / 30.17
 04:55 Mostly Cloudy  S 8/0 (9/0) 15(59) 83 1022 / 30.17
 03:55 Mostly Cloudy  S 6/0 (7/0) 15(60) 86 1022 / 30.19
 02:55 Mostly Cloudy  S 5/0 (6/0) 14(58) 83 1022 / 30.19
 01:55 Mostly Cloudy  SSW 5/0 (6/0) 16(60) 75 1023 / 30.20
 00:55 Mostly Cloudy  SSE 7/0 (8/0) 17(63) 64 1023 / 30.20
 23:55 Mostly Cloudy  SE 4/0 (5/0) 18(64) 61 1024 / 30.23
 22:55 Mostly Cloudy  SSE 4/0 (5/0) 17(62) 63 1024 / 30.23
 21:55 Mostly Cloudy  E 4/0 (5/0) 17(63) 68 1024 / 30.23
 20:55 Mostly Cloudy Showers VRB 2/0 (2/0) 16(62) 69 1024 / 30.23
 19:55 Mostly Cloudy Showers VRB 2/0 (2/0) 17(63) 66 1023 / 30.22
 19:05 Mostly Cloudy Showers E 1/0 (1/0) 17(63) 65 1024 / 30.23
 18:55 Mostly Cloudy Showers NE 2/0 (2/0) 18(64) 62 1024 / 30.23
 17:55 Few Clouds  N 4/0 (5/0) 17(63) 67 1023 / 30.21
 16:55 Partly Cloudy  NNW 3/0 (3/0) 18(65) 60 1023 / 30.20
 15:55 Partly Cloudy  NW 5/0 (6/0) 19(66) 56 1022 / 30.19
 14:55 Few Clouds  NNW 5/0 (6/0) 19(67) 55 1023 / 30.20
 13:55 Few Clouds  N 6/0 (7/0) 19(66) 55 1022 / 30.19
 12:55 Few Clouds  N 6/0 (7/0) 19(66) 57 1023 / 30.20
 11:55 Partly Cloudy  NNW 6/0 (7/0) 19(66) 57 1024 / 30.23
 10:55 Mostly Cloudy  N 7/0 (8/0) 19(65) 54 1024 / 30.24
 09:55 Mostly Cloudy  N 8/0 (9/0) 17(63) 61 1024 / 30.24
 08:55 Mostly Cloudy Showers VRB 2/0 (2/0) 17(62) 70 1023 / 30.22
 07:55 Partly Cloudy  NW 1/0 (1/0) 14(57) 88 1023 / 30.20
 06:55 Partly Cloudy  NNE 4/0 (5/0) 15(60) 74 1022 / 30.18
 05:55 Mostly Cloudy  N 5/0 (6/0) 16(60) 72 1022 / 30.17
 04:55 Mostly Cloudy  NNE 4/0 (5/0) 15(58) 81 1021 / 30.15
 03:55 Mostly Cloudy  NNE 2/0 (2/0) 14(57) 90 1021 / 30.16
 02:55 Mostly Cloudy  N 5/0 (6/0) 14(57) 89 1021 / 30.16
 01:55 Mostly Cloudy  WNW 2/0 (2/0) 14(57) 91 1021 / 30.16
 00:55 Mostly Cloudy  VRB 1/0 (1/0) 14(58) 90 1021 / 30.16
 23:55 Mostly Cloudy  SE 2/0 (2/0) 14(57) 90 1022 / 30.17
 22:55 Mostly Cloudy  E 4/0 (5/0) 14(57) 84 1022 / 30.17
 21:55 Mostly Cloudy Showers E 5/0 (6/0) 14(58) 83 1021 / 30.16
 21:16 Mostly Cloudy Showers NE 5/0 (6/0) 15(58) 85 1021 / 30.15
 20:55 Mostly Cloudy Showers NW 7/0 (8/0) 16(60) 80 1021 / 30.15
 20:32 Mostly Cloudy Showers N 1/0 (1/0) 15(60) 82 1021 / 30.14
 19:55 Partly Cloudy  N 1/0 (1/0) 15(59) 80 1021 / 30.14
 18:55 Few Clouds  NNE 5/0 (6/0) 16(60) 73 1020 / 30.12
 17:55 Few Clouds  NNW 7/0 (8/0) 16(62) 69 1020 / 30.11
 16:55 Mostly Cloudy Showers NNW 6/0 (7/0) 18(64) 62 1019 / 30.10
 15:55 Partly Cloudy Showers NW 6/0 (7/0) 18(64) 64 1019 / 30.09
 15:33 Partly Cloudy Showers NNW 8/0 (9/0) 17(63) 71 1019 / 30.09
 15:17 Partly Cloudy Showers W 5/0 (6/0) 18(64) 65 1019 / 30.09
 14:55 Few Clouds Showers WSW 7/0 (8/0) 18(64) 62 1019 / 30.09
 14:05 Partly Cloudy  WNW 3/0 (3/0) 17(62) 71 1019 / 30.08
 13:55 Partly Cloudy Showers WNW 5/0 (6/0) 18(64) 66 1019 / 30.08
 12:55 Partly Cloudy  WNW 5/0 (6/0) 18(64) 59 1019 / 30.08
 12:40 Partly Cloudy  NNW 5/0 (6/0) 18(65) 57 1019 / 30.08
 12:25 Partly Cloudy Showers W 4/0 (5/0) 18(65) 62 1019 / 30.09
 11:55 Few Clouds Showers NNW 4/0 (5/0) 18(65) 60 1019 / 30.10
 10:55 Few Clouds  VRB 2/0 (2/0) 19(65) 65 1020 / 30.12
 09:55 Partly Cloudy Showers NNE 6/0 (7/0) 17(62) 73 1020 / 30.11
 09:23 Partly Cloudy Showers NNW 10/0 (12/0) 16(61) 80 1019 / 30.10
 08:55 Partly Cloudy Showers SW 4/0 (5/0) 16(62) 79 1019 / 30.09
 07:55 Few Clouds  W 3/0 (3/0) 14(58) 91 1018 / 30.07
 06:55 Mostly Cloudy Showers WSW 5/0 (6/0) 14(58) 90 1018 / 30.05
 06:20 Mostly Cloudy Showers W 3/0 (3/0) 14(57) 88 1017 / 30.04
 05:55 Mostly Cloudy Showers VRB 2/0 (2/0) 14(57) 90 1017 / 30.03
 05:48 Mostly Cloudy Showers Calm 14(57) 90 1017 / 30.02
 05:19 Mostly Cloudy Showers SSE 2/0 (2/0) 14(57) 89 1017 / 30.02
 04:55 Overcast Showers NNW 7/0 (8/0) 14(58) 87 1017 / 30.02
 03:55 Partly Cloudy Showers NNW 6/0 (7/0) 16(61) 69 1016 / 30.01
 02:55 Partly Cloudy  NNW 5/0 (6/0) 16(60) 76 1016 / 30.01
 01:55 Partly Cloudy  N 9/0 (10/0) 15(60) 82 1016 / 29.99
 00:55 Mostly Cloudy  N 10/0 (12/0) 15(60) 82 1016 / 29.99
 00:31 Mostly Cloudy  N 12/0 (14/0) 15(59) 83 1016 / 29.99
 23:55 Mostly Cloudy  N 13/0 (15/0) 15(59) 86 1016 / 29.99
 23:35 Mostly Cloudy Showers N 15/0 (17/0) 15(59) 90 1016 / 29.99
 23:08 Overcast Showers N 17/0 (20/0) 15(60) 91 1016 / 30.00
 22:55 Mostly Cloudy Showers N 10/0 (12/0) 16(60) 91 1016 / 29.99
 22:19 Overcast Showers WNW 10/0 (12/0) 15(60) 95 1016 / 29.99
 21:55 Overcast Showers NW 6/0 (7/0) 16(60) 92 1015 / 29.98
 21:33 Overcast Showers NNW 7/0 (8/0) 16(61) 88 1015 / 29.98
 20:55 Overcast Showers VRB 2/0 (2/0) 16(62) 85 1015 / 29.96
 20:36 Mostly Cloudy Showers N 2/0 (2/0) 17(62) 84 1015 / 29.97
 19:55 Mostly Cloudy Showers N 5/0 (6/0) 17(62) 81 1015 / 29.97
Island AWOS